NCAR-RAP Real-Time Weather Data

Output produced by METARs form (06 May 2021  15:06 UTC)
found at http://weather.rap.ucar.edu/surface/
 
KMPO 061453Z AUTO 31015G24KT 10SM CLR 08/01 A2999 RMK AO2 PK WND 32028/1402 SLP162 T00830006 53009
KMPO 061353Z AUTO 31018G25KT 10SM CLR 08/01 A2998 RMK AO2 PK WND 31029/1313 SLP159 T00780006
KMPO 061303Z AUTO 32017G29KT 10SM FEW023 SCT029 07/01 A2996 RMK AO2 PK WND 31029/1258 T00670006
KMPO 061253Z AUTO 33020G28KT 10SM SCT023 BKN029 07/01 A2996 RMK AO2 PK WND 32028/1253 SLP154 T00670006
KMPO 061153Z AUTO 31014G27KT 10SM BKN021 06/02 A2996 RMK AO2 PK WND 31027/1144 RAE05 SLP153 P0001 60001 70056 T00610017 10061 20050 53023
KMPO 061053Z AUTO 31014G24KT 10SM -RA BKN017 OVC024 05/02 A2993 RMK AO2 RAE06B26 SLP141 P0000 T00500022
KMPO 060953Z AUTO 31012KT 10SM -RA BKN017 OVC024 05/02 A2990 RMK AO2 RAB35 SLP132 P0000 T00500022
KMPO 060853Z AUTO 30014KT 10SM SCT018 BKN027 BKN032 06/02 A2989 RMK AO2 SLP127 T00560022 53006
KMPO 060807Z AUTO 30013G22KT 10SM SCT018 BKN026 06/02 A2987 RMK AO2 T00560022
KMPO 060753Z AUTO 30017G21KT 10SM SCT026 06/02 A2987 RMK AO2 SLP121 T00560022
KMPO 060745Z AUTO 30014G22KT 10SM SCT026 06/02 A2987 RMK AO2 T00560022
KMPO 060653Z AUTO 31014G21KT 10SM OVC023 06/02 A2986 RMK AO2 SLP116 T00560022
KMPO 060553Z AUTO 30013G18KT 10SM BKN022 06/03 A2987 RMK AO2 SLP116 60000 T00610028 10083 20056 50001
KMPO 060540Z AUTO 29011G19KT 10SM BKN024 BKN029 06/03 A2987 RMK AO2 T00560028
KMPO 060453Z AUTO 29014G20KT 10SM FEW019 06/03 A2987 RMK AO2 SLP120 T00610033 401610061
KMPO 060430Z AUTO 29015G22KT 10SM SCT021 BKN047 07/03 A2987 RMK AO2 T00670033
KMPO 060353Z AUTO 30016G22KT 10SM BKN020 BKN025 OVC043 07/03 A2987 RMK AO2 SLP118 T00670033
KMPO 060346Z AUTO 29012G22KT 10SM SCT019 BKN024 BKN043 07/04 A2986 RMK AO2 T00670039
KMPO 060253Z AUTO 30012KT 10SM BKN042 07/04 A2986 RMK AO2 RAB0157E07 SLP115 P0000 60000 T00720039 50004
KMPO 060234Z AUTO 30014G22KT 10SM FEW014 BKN035 OVC044 08/04 A2987 RMK AO2 RAB0157E07 P0000 T00780044
KMPO 060153Z AUTO 29011KT 10SM BKN015 BKN021 OVC033 08/05 A2987 RMK AO2 SLP117 T00780050
KMPO 060146Z AUTO 29010G20KT 10SM SCT015 BKN021 OVC035 08/05 A2986 RMK AO2 T00780050
KMPO 060053Z AUTO 31013G19KT 10SM FEW017 SCT027 OVC035 08/06 A2985 RMK AO2 PK WND 30029/0005 RAB05E33 SLP111 P0000 T00780056
KMPO 060048Z AUTO 30012KT 10SM FEW017 SCT025 OVC033 08/06 A2985 RMK AO2 PK WND 30029/0005 RAB05E33 P0000
KMPO 060035Z AUTO 31012KT 10SM SCT013 BKN022 OVC031 08/06 A2984 RMK AO2 PK WND 30029/0005 RAB05E33 P0000 T00780061
KMPO 052353Z AUTO 31014G25KT 10SM OVC011 08/06 A2982 RMK AO2 PK WND 31028/2340 SLP100 60002 T00830061 10161 20083 53028
KMPO 052327Z AUTO 31013G25KT 10SM OVC014 09/07 A2980 RMK AO2 PK WND 30026/2311 T00890067